Time;durP1;ratioP1;P1;durP2;ratioP2;P2;SDS_P1;SDS_P2;PMS_P1;PMS_P2;Temp;Humidity;BMP_temperature;BMP_pressure;BME280_temperature;BME280_humidity;BME280_pressure;Samples;Min_cycle;Max_cycle;Signal;HPM_P1;HPM_P2
2023/11/20 00:01:46;;;;;;;6.10;2.30;;;;;;;11.37;92.10;97973.53;4168619;28;20628;-84
2023/11/20 00:03:50;;;;;;;5.90;2.10;;;;;;;11.33;91.73;97974.72;4170291;28;20644;-83
2023/11/20 00:05:54;;;;;;;12.30;2.50;;;;;;;11.37;90.72;97973.53;4166312;28;20634;-83
2023/11/20 00:07:57;;;;;;;6.53;1.70;;;;;;;11.33;90.70;97969.47;4178698;28;20636;-84
2023/11/20 00:10:00;;;;;;;7.83;2.40;;;;;;;11.25;91.33;97974.44;4153251;28;20738;-83
2023/11/20 00:12:03;;;;;;;6.80;2.20;;;;;;;11.22;90.27;97974.66;4166928;28;20719;-83
2023/11/20 00:14:08;;;;;;;8.43;2.30;;;;;;;11.21;90.32;97967.75;4157849;28;20625;-84
2023/11/20 00:16:12;;;;;;;9.97;2.20;;;;;;;11.16;90.04;97958.63;4172065;28;20626;-84
2023/11/20 00:18:21;;;;;;;11.00;2.50;;;;;;;11.14;90.79;97971.78;4173007;28;20641;-83
2023/11/20 00:20:24;;;;;;;7.67;2.47;;;;;;;11.13;91.90;97964.06;4167393;28;20671;-83
2023/11/20 00:22:27;;;;;;;12.40;3.03;;;;;;;11.07;91.03;97961.91;4168042;28;20637;-84
2023/11/20 00:24:30;;;;;;;7.33;3.03;;;;;;;11.05;90.65;97962.00;4184776;28;20782;-83
2023/11/20 00:26:34;;;;;;;10.50;2.80;;;;;;;10.98;91.79;97959.94;4183632;28;20655;-83
2023/11/20 00:28:41;;;;;;;9.77;2.50;;;;;;;10.96;91.55;97956.59;4156425;28;20630;-84
2023/11/20 00:30:46;;;;;;;16.40;2.43;;;;;;;10.99;91.38;97962.44;4158367;28;20633;-83
2023/11/20 00:32:48;;;;;;;10.83;2.03;;;;;;;10.93;90.48;97956.81;4173026;28;20624;-84
2023/11/20 00:34:52;;;;;;;8.63;2.80;;;;;;;10.89;91.28;97958.81;4172672;28;21054;-83
2023/11/20 00:36:55;;;;;;;9.10;2.33;;;;;;;10.83;91.53;97955.81;4187483;28;20617;-84
2023/11/20 00:38:57;;;;;;;8.67;2.03;;;;;;;10.83;90.76;97955.81;4173764;28;20612;-83
2023/11/20 00:41:00;;;;;;;6.83;2.13;;;;;;;10.85;91.81;97949.56;4168030;28;20617;-83
2023/11/20 00:43:04;;;;;;;8.40;2.27;;;;;;;10.79;90.83;97962.19;4172353;28;20817;-83
2023/11/20 00:45:08;;;;;;;8.30;2.47;;;;;;;10.77;91.70;97963.25;4169839;28;21295;-83
2023/11/20 00:47:11;;;;;;;12.70;2.30;;;;;;;10.76;91.30;97966.81;4172006;28;20640;-84
2023/11/20 00:49:14;;;;;;;9.50;2.70;;;;;;;10.78;91.11;97954.47;4185359;28;20644;-83
2023/11/20 00:51:18;;;;;;;10.83;2.80;;;;;;;10.76;91.33;97958.97;4165059;28;20674;-84
2023/11/20 00:53:21;;;;;;;5.83;1.77;;;;;;;10.74;91.46;97960.88;4185116;28;20612;-84
2023/11/20 00:55:24;;;;;;;11.17;2.40;;;;;;;10.74;90.56;97961.69;4155909;28;20680;-84
2023/11/20 00:57:28;;;;;;;8.77;2.00;;;;;;;10.74;90.30;97959.09;4167589;28;20626;-83
2023/11/20 00:59:30;;;;;;;7.93;2.13;;;;;;;10.74;92.01;97955.66;4184456;28;20774;-83
2023/11/20 01:01:36;;;;;;;9.00;2.53;;;;;;;10.72;90.98;97954.91;4149997;28;20266;-83
2023/11/20 01:03:40;;;;;;;6.57;1.87;;;;;;;10.73;91.29;97964.41;4171867;28;20644;-83
2023/11/20 01:05:44;;;;;;;7.70;2.27;;;;;;;10.78;91.65;97964.91;4165465;28;20657;-84
2023/11/20 01:07:47;;;;;;;11.53;2.43;;;;;;;10.85;90.48;97969.59;4156572;28;21583;-83
2023/11/20 01:09:50;;;;;;;10.43;3.17;;;;;;;10.92;90.26;97970.81;4182936;28;20682;-83
2023/11/20 01:11:53;;;;;;;7.97;2.20;;;;;;;10.95;91.37;97971.44;4184366;28;20726;-83
2023/11/20 01:13:56;;;;;;;9.73;2.00;;;;;;;10.99;91.20;97978.09;4165145;28;20628;-83
2023/11/20 01:15:59;;;;;;;6.63;2.10;;;;;;;11.02;90.83;97977.03;4184069;28;20635;-83
2023/11/20 01:18:03;;;;;;;7.33;1.70;;;;;;;11.04;90.29;97976.00;4183037;28;22276;-84
2023/11/20 01:20:10;;;;;;;8.17;2.27;;;;;;;11.05;91.36;97975.06;4170048;28;20719;-83
2023/11/20 01:22:14;;;;;;;6.20;2.30;;;;;;;11.06;90.01;97974.09;4182460;28;20629;-84
2023/11/20 01:24:17;;;;;;;7.40;1.97;;;;;;;11.08;90.35;97955.72;4185122;28;20616;-84
2023/11/20 01:26:19;;;;;;;10.50;2.27;;;;;;;11.10;90.59;97965.09;4151320;28;20683;-83
2023/11/20 01:28:22;;;;;;;10.03;2.60;;;;;;;11.13;91.00;97962.28;4154927;28;20636;-84
2023/11/20 01:30:26;;;;;;;9.43;2.63;;;;;;;11.15;90.22;97960.38;4169220;28;20646;-83
2023/11/20 01:32:29;;;;;;;5.90;2.17;;;;;;;11.17;91.03;97955.03;4177830;28;20620;-84
2023/11/20 01:34:33;;;;;;;8.17;1.87;;;;;;;11.19;90.15;97959.22;4179867;28;20723;-83
2023/11/20 01:36:37;;;;;;;5.30;1.70;;;;;;;11.21;90.54;97962.53;4155308;28;20623;-84
2023/11/20 01:38:40;;;;;;;6.57;2.10;;;;;;;11.24;89.13;97966.72;4181321;28;20632;-84
2023/11/20 01:40:45;;;;;;;6.53;1.87;;;;;;;11.26;88.89;97957.00;4182602;28;20706;-84
2023/11/20 01:42:48;;;;;;;9.20;2.47;;;;;;;11.28;89.38;97953.34;4170536;28;21151;-84
2023/11/20 01:44:51;;;;;;;12.53;2.50;;;;;;;11.29;90.29;97955.00;4157538;28;20648;-84
2023/11/20 01:46:54;;;;;;;10.27;2.67;;;;;;;11.31;89.53;97953.09;4170714;28;20616;-83
2023/11/20 01:48:59;;;;;;;7.33;2.20;;;;;;;11.32;89.90;97955.59;4165692;28;20639;-82
2023/11/20 01:51:02;;;;;;;5.43;1.83;;;;;;;11.34;89.58;97953.72;4180035;28;20632;-84
2023/11/20 01:53:09;;;;;;;7.67;2.60;;;;;;;11.35;89.23;97951.91;4183192;28;20671;-83
2023/11/20 01:55:14;;;;;;;8.53;2.20;;;;;;;11.35;90.04;97954.53;4164718;28;20628;-83
2023/11/20 01:57:17;;;;;;;6.13;2.30;;;;;;;11.35;89.47;97958.00;4171283;28;20624;-83
2023/11/20 01:59:21;;;;;;;5.93;1.93;;;;;;;11.34;88.43;97940.66;4168556;28;20682;-83
2023/11/20 02:01:24;;;;;;;6.50;1.97;;;;;;;11.33;88.99;97938.16;4179022;28;20639;-83
2023/11/20 02:03:27;;;;;;;6.20;2.07;;;;;;;11.33;90.56;97952.03;4148766;28;20746;-83
2023/11/20 02:05:31;;;;;;;11.10;2.50;;;;;;;11.30;88.46;97943.59;4155935;28;20752;-83
2023/11/20 02:07:34;;;;;;;7.53;1.90;;;;;;;11.31;90.25;97947.88;4165527;28;21071;-84
2023/11/20 02:09:39;;;;;;;7.67;2.27;;;;;;;11.33;90.12;97951.22;4184697;28;20615;-84
2023/11/20 02:11:44;;;;;;;9.83;2.53;;;;;;;11.35;89.35;97938.88;4173824;28;21186;-84
2023/11/20 02:13:49;;;;;;;12.13;2.37;;;;;;;11.35;89.71;97944.94;4176655;28;20668;-84
2023/11/20 02:15:52;;;;;;;7.10;2.13;;;;;;;11.36;90.57;97945.75;4170502;28;20613;-83
2023/11/20 02:17:55;;;;;;;6.13;2.93;;;;;;;11.38;89.44;97943.84;4149132;28;20737;-83
2023/11/20 02:19:57;;;;;;;8.10;2.67;;;;;;;11.40;90.82;97949.81;4148237;28;20603;-84
2023/11/20 02:22:00;;;;;;;8.73;2.40;;;;;;;11.42;91.39;97934.88;4155404;28;20610;-84
2023/11/20 02:24:05;;;;;;;8.87;2.10;;;;;;;11.43;90.60;97941.75;4156636;28;21216;-83
2023/11/20 02:26:52;;;;;;;9.60;2.50;;;;;;;11.40;92.00;97937.59;4182680;28;21076;-84
2023/11/20 02:29:08;;;;;;;5.60;2.30;;;;;;;11.38;90.90;97929.03;4164347;28;20624;-83
2023/11/20 02:31:13;;;;;;;10.17;2.43;;;;;;;11.37;89.29;97937.00;4169508;28;21670;-83
2023/11/20 02:33:15;;;;;;;7.77;2.10;;;;;;;11.38;90.56;97936.03;4184147;28;20675;-84
2023/11/20 02:35:18;;;;;;;8.73;2.20;;;;;;;11.37;90.28;97937.00;4153979;28;20732;-84
2023/11/20 02:37:22;;;;;;;15.90;2.17;;;;;;;11.39;91.48;97935.09;4145623;28;20594;-84
2023/11/20 02:39:25;;;;;;;9.40;2.13;;;;;;;11.39;91.87;97935.09;4184187;28;20639;-84
2023/11/20 02:41:29;;;;;;;8.97;2.30;;;;;;;11.39;89.76;97937.69;4163115;28;20671;-83
2023/11/20 02:43:38;;;;;;;6.03;2.30;;;;;;;11.39;90.54;97925.47;4151166;28;20625;-83
2023/11/20 02:45:41;;;;;;;14.13;2.27;;;;;;;11.37;89.91;97921.31;4166577;28;25055;-83
2023/11/20 02:47:45;;;;;;;8.90;2.03;;;;;;;11.37;90.07;97921.31;4166778;28;20632;-83
2023/11/20 02:49:48;;;;;;;6.03;2.33;;;;;;;11.34;90.30;97921.56;4166804;28;21311;-83
2023/11/20 02:51:50;;;;;;;8.00;1.80;;;;;;;11.34;89.44;97919.75;4165886;28;21041;-84
2023/11/20 02:53:54;;;;;;;6.60;1.60;;;;;;;11.36;90.08;97917.03;4165936;28;20636;-84
2023/11/20 02:55:57;;;;;;;12.20;2.93;;;;;;;11.35;89.15;97921.44;4168723;28;21253;-83
2023/11/20 02:58:01;;;;;;;11.17;2.80;;;;;;;11.38;90.33;97913.38;4167531;28;21247;-83
2023/11/20 03:00:06;;;;;;;13.40;2.97;;;;;;;11.44;89.85;97912.94;4179889;28;20671;-84
2023/11/20 03:02:13;;;;;;;11.90;2.00;;;;;;;11.45;90.07;97908.53;4168773;28;20635;-84
2023/11/20 03:04:19;;;;;;;15.73;2.63;;;;;;;11.44;90.72;97917.28;4169868;28;21217;-83
2023/11/20 03:06:22;;;;;;;7.33;2.67;;;;;;;11.44;88.96;97910.31;4180067;28;20701;-83
2023/11/20 03:08:27;;;;;;;5.97;2.07;;;;;;;11.40;89.64;97906.25;4148259;28;21016;-84
2023/11/20 03:10:30;;;;;;;9.33;2.00;;;;;;;11.40;90.14;97913.28;4172721;28;20628;-84
2023/11/20 03:12:33;;;;;;;7.43;3.03;;;;;;;11.48;89.65;97909.16;4170910;28;20616;-84
2023/11/20 03:14:35;;;;;;;13.53;2.97;;;;;;;11.54;90.07;97913.09;4164438;28;20672;-84
2023/11/20 03:16:39;;;;;;;7.77;2.20;;;;;;;11.54;90.24;97913.91;4156166;28;20673;-83
2023/11/20 03:18:42;;;;;;;9.70;2.20;;;;;;;11.52;90.70;97915.81;4167544;28;21386;-83
2023/11/20 03:20:47;;;;;;;9.53;2.20;;;;;;;11.53;91.83;97911.41;4169658;28;21202;-83
2023/11/20 03:22:51;;;;;;;6.80;2.50;;;;;;;11.57;91.12;97910.25;4171709;28;20616;-84
2023/11/20 03:24:54;;;;;;;9.30;2.07;;;;;;;11.61;90.53;97906.47;4166242;28;20625;-84
2023/11/20 03:26:57;;;;;;;6.93;2.13;;;;;;;11.66;91.18;97901.72;4181306;28;20655;-84
2023/11/20 03:29:01;;;;;;;7.73;1.90;;;;;;;11.69;90.69;97896.28;4164992;28;21596;-83
2023/11/20 03:31:04;;;;;;;6.10;2.00;;;;;;;11.68;92.83;97902.44;4151392;28;20657;-83
2023/11/20 03:33:08;;;;;;;5.70;2.00;;;;;;;11.68;91.32;97890.22;4151934;28;20638;-83
2023/11/20 03:35:11;;;;;;;13.70;2.10;;;;;;;11.68;90.96;97892.84;4169844;28;20642;-84
2023/11/20 03:37:15;;;;;;;9.13;1.87;;;;;;;11.71;91.68;97899.59;4152956;28;20618;-84
2023/11/20 03:39:19;;;;;;;14.63;2.60;;;;;;;11.73;89.91;97889.84;4168819;28;20628;-84
2023/11/20 03:41:22;;;;;;;5.50;1.67;;;;;;;11.75;89.85;97888.78;4149480;28;20984;-84
2023/11/20 03:43:25;;;;;;;8.47;1.93;;;;;;;11.75;91.74;97889.63;4155980;28;20644;-84
2023/11/20 03:45:28;;;;;;;10.97;2.23;;;;;;;11.76;91.27;97886.06;4158073;28;20724;-84
2023/11/20 03:47:30;;;;;;;9.50;2.50;;;;;;;11.76;90.29;97896.50;4170235;28;21201;-83
2023/11/20 03:49:34;;;;;;;5.87;1.80;;;;;;;11.78;90.81;97892.00;4158935;28;20661;-83
2023/11/20 03:51:37;;;;;;;12.40;2.10;;;;;;;11.80;91.05;97890.13;4153241;28;21051;-83
2023/11/20 03:53:41;;;;;;;8.80;2.50;;;;;;;11.84;92.86;97894.13;4169868;28;20647;-84
2023/11/20 03:55:46;;;;;;;6.20;1.80;;;;;;;11.86;90.86;97900.09;4169531;28;20628;-84
2023/11/20 03:57:49;;;;;;;9.87;2.27;;;;;;;11.89;92.80;97894.66;4161644;28;20708;-83
2023/11/20 03:59:52;;;;;;;8.47;1.93;;;;;;;11.92;91.45;97901.41;4149481;28;20621;-83
2023/11/20 04:01:55;;;;;;;11.90;2.60;;;;;;;11.94;92.00;97897.72;4175164;28;20708;-84
2023/11/20 04:03:58;;;;;;;9.57;2.37;;;;;;;11.97;91.38;97892.25;4181280;28;20663;-83
2023/11/20 04:06:01;;;;;;;8.37;2.00;;;;;;;11.99;92.61;97898.19;4169561;28;20714;-83
2023/11/20 04:08:05;;;;;;;6.67;2.30;;;;;;;11.99;91.45;97890.34;4170038;28;20652;-84
2023/11/20 04:10:11;;;;;;;8.80;2.40;;;;;;;12.01;91.76;97895.47;4146863;28;20626;-83
2023/11/20 04:12:14;;;;;;;12.50;2.50;;;;;;;12.04;90.66;97890.00;4154269;28;21284;-84
2023/11/20 04:14:18;;;;;;;5.70;1.80;;;;;;;12.06;92.19;97891.56;4166767;28;20651;-83
2023/11/20 04:16:21;;;;;;;11.00;2.80;;;;;;;12.10;90.92;97881.69;4177906;28;21245;-84
2023/11/20 04:18:23;;;;;;;7.90;1.80;;;;;;;12.09;91.66;97896.53;4167623;28;20660;-84
2023/11/20 04:20:27;;;;;;;9.47;2.30;;;;;;;12.12;92.08;97896.31;4149792;28;20673;-83
2023/11/20 04:22:30;;;;;;;9.33;2.23;;;;;;;12.13;90.74;97902.34;4167238;28;20629;-84
2023/11/20 04:24:33;;;;;;;7.40;1.90;;;;;;;12.10;91.77;97895.56;4156567;28;20617;-84
2023/11/20 04:26:38;;;;;;;5.97;2.37;;;;;;;12.11;91.21;97896.44;4178415;28;20702;-83
2023/11/20 04:28:41;;;;;;;8.00;2.17;;;;;;;12.15;92.00;97905.69;4153849;28;20668;-83
2023/11/20 04:30:44;;;;;;;6.50;1.83;;;;;;;12.15;89.83;97905.69;4149745;28;20657;-83
2023/11/20 04:32:47;;;;;;;6.33;1.60;;;;;;;12.18;90.35;97898.44;4167798;28;20621;-83
2023/11/20 04:34:51;;;;;;;7.50;2.47;;;;;;;12.20;89.41;97895.72;4169776;28;20640;-83
2023/11/20 04:36:54;;;;;;;8.87;1.93;;;;;;;12.20;90.54;97893.09;4151375;28;20700;-83
2023/11/20 04:38:57;;;;;;;4.87;1.70;;;;;;;12.19;89.92;97892.25;4168731;28;21081;-83
2023/11/20 04:41:00;;;;;;;8.60;2.03;;;;;;;12.14;90.42;97898.81;4147972;28;21053;-84
2023/11/20 04:43:05;;;;;;;6.67;1.60;;;;;;;12.11;89.15;97894.63;4165285;28;20652;-84
2023/11/20 04:45:10;;;;;;;7.47;1.90;;;;;;;12.11;89.99;97896.44;4156785;28;20708;-83
2023/11/20 04:47:14;;;;;;;8.87;2.00;;;;;;;12.12;90.63;97885.00;4155623;28;21179;-84
2023/11/20 04:49:16;;;;;;;13.00;2.33;;;;;;;12.09;89.31;97891.31;4152546;28;20629;-84
2023/11/20 04:51:20;;;;;;;9.33;2.33;;;;;;;12.05;90.03;97894.28;4178717;28;20730;-84
2023/11/20 04:53:24;;;;;;;6.83;2.07;;;;;;;12.09;88.81;97900.91;4179661;28;20693;-83
2023/11/20 04:55:29;;;;;;;6.87;2.27;;;;;;;12.11;88.42;97902.47;4168547;28;20731;-84
2023/11/20 04:57:33;;;;;;;6.80;2.23;;;;;;;12.14;89.10;97904.84;4165107;28;20620;-84
2023/11/20 04:59:38;;;;;;;11.00;2.50;;;;;;;12.13;88.95;97889.28;4167444;28;20632;-83
2023/11/20 05:01:41;;;;;;;10.40;1.80;;;;;;;12.14;88.29;97899.63;4160990;28;20981;-84
2023/11/20 05:03:44;;;;;;;6.47;1.70;;;;;;;12.21;87.71;97903.44;4180165;28;20642;-84
2023/11/20 05:05:51;;;;;;;12.17;3.50;;;;;;;12.22;87.92;97896.41;4169803;28;20624;-84
2023/11/20 05:07:54;;;;;;;7.40;2.43;;;;;;;12.23;88.22;97898.91;4181212;28;20667;-84
2023/11/20 05:09:58;;;;;;;7.03;1.70;;;;;;;12.26;88.05;97896.88;4167988;28;20702;-83
2023/11/20 05:12:02;;;;;;;8.37;1.60;;;;;;;12.26;88.80;97899.50;4167389;28;20643;-83
2023/11/20 05:14:05;;;;;;;6.03;2.00;;;;;;;12.29;87.59;97907.09;4157393;28;21179;-84
2023/11/20 05:16:11;;;;;;;5.67;1.53;;;;;;;12.32;89.24;97906.03;4184726;28;20635;-84
2023/11/20 05:18:15;;;;;;;10.90;2.70;;;;;;;12.36;87.53;97907.47;4169473;28;20640;-84
2023/11/20 05:20:18;;;;;;;8.67;2.20;;;;;;;12.37;88.20;97902.13;4183566;28;20629;-83
2023/11/20 05:22:21;;;;;;;10.50;2.60;;;;;;;12.40;88.15;97896.66;4154939;28;20610;-84
2023/11/20 05:24:25;;;;;;;9.90;2.30;;;;;;;12.42;88.33;97899.97;4181570;28;20616;-84
2023/11/20 05:26:28;;;;;;;6.80;1.73;;;;;;;12.46;88.30;97905.78;4169941;28;20640;-84
2023/11/20 05:28:31;;;;;;;10.20;1.90;;;;;;;12.44;88.13;97903.28;4180649;28;20663;-84
2023/11/20 05:30:33;;;;;;;10.30;2.53;;;;;;;12.46;87.99;97897.94;4171500;28;21041;-84
2023/11/20 05:32:38;;;;;;;6.23;2.10;;;;;;;12.47;89.73;97900.44;4169980;28;20668;-84
2023/11/20 05:34:42;;;;;;;6.30;1.70;;;;;;;12.48;89.43;97890.78;4182785;28;20611;-84
2023/11/20 05:36:45;;;;;;;4.80;1.80;;;;;;;12.47;89.41;97894.38;4179399;28;20628;-83
2023/11/20 05:38:48;;;;;;;6.70;2.10;;;;;;;12.49;88.17;97897.69;4146761;28;20629;-83
2023/11/20 05:40:51;;;;;;;10.63;2.70;;;;;;;12.51;88.99;97890.56;4153112;28;20679;-83
2023/11/20 05:42:54;;;;;;;17.57;2.53;;;;;;;12.51;87.84;97899.25;4169756;28;20960;-84
2023/11/20 05:44:57;;;;;;;12.20;2.20;;;;;;;12.52;88.13;97900.91;4185735;28;21025;-83
2023/11/20 05:46:59;;;;;;;10.63;1.83;;;;;;;12.51;89.45;97898.41;4169688;28;20628;-84
2023/11/20 05:49:04;;;;;;;9.03;2.30;;;;;;;12.53;88.17;97904.38;4156682;28;20629;-83
2023/11/20 05:51:07;;;;;;;5.40;1.70;;;;;;;12.53;88.21;97901.75;4164437;28;20682;-83
2023/11/20 05:53:10;;;;;;;7.40;1.97;;;;;;;12.54;88.61;97909.47;4167524;28;21185;-82
2023/11/20 05:55:14;;;;;;;6.57;1.83;;;;;;;12.56;88.18;97904.13;4181550;28;20628;-84
2023/11/20 05:57:18;;;;;;;6.53;1.77;;;;;;;12.58;88.99;97902.22;4153020;28;21034;-83
2023/11/20 05:59:21;;;;;;;8.43;2.30;;;;;;;12.57;89.41;97904.00;4162300;28;20671;-83
2023/11/20 06:01:24;;;;;;;9.20;2.03;;;;;;;12.59;89.18;97899.47;4161326;28;20665;-83
2023/11/20 06:03:27;;;;;;;6.53;2.10;;;;;;;12.61;89.03;97901.97;4155379;28;20637;-83
2023/11/20 06:05:32;;;;;;;10.40;2.43;;;;;;;12.63;90.01;97905.28;4169180;28;20627;-83
2023/11/20 06:07:36;;;;;;;4.77;1.83;;;;;;;12.64;88.69;97899.09;4170995;28;20656;-82
2023/11/20 06:09:41;;;;;;;9.70;2.00;;;;;;;12.65;89.66;97906.84;4185885;28;20630;-85
2023/11/20 06:11:48;;;;;;;7.50;2.07;;;;;;;12.67;89.44;97899.69;4167618;28;20629;-84
2023/11/20 06:13:51;;;;;;;8.83;2.50;;;;;;;12.67;88.19;97904.09;4163563;28;21193;-84
2023/11/20 06:15:54;;;;;;;6.63;2.43;;;;;;;12.66;89.47;97905.03;4183050;28;20620;-83
2023/11/20 06:17:57;;;;;;;9.30;1.83;;;;;;;12.67;88.85;97906.72;4168915;28;20609;-83
2023/11/20 06:20:01;;;;;;;8.83;2.23;;;;;;;12.66;89.41;97907.66;4160479;28;21427;-83
2023/11/20 06:22:05;;;;;;;7.50;1.90;;;;;;;12.64;89.40;97904.34;4165763;28;20617;-83
2023/11/20 06:24:09;;;;;;;8.47;2.20;;;;;;;12.59;89.16;97911.72;4173527;28;20636;-84
2023/11/20 06:26:13;;;;;;;9.77;2.40;;;;;;;12.55;89.33;97915.53;4181322;28;21114;-83
2023/11/20 06:28:16;;;;;;;11.83;3.23;;;;;;;12.51;88.79;97914.09;4163504;28;20660;-83
2023/11/20 06:30:19;;;;;;;7.90;2.13;;;;;;;12.47;89.37;97917.94;4164084;28;20687;-83
2023/11/20 06:32:23;;;;;;;10.63;2.20;;;;;;;12.43;89.79;97912.13;4170597;28;21256;-83
2023/11/20 06:34:27;;;;;;;8.30;2.40;;;;;;;12.39;88.45;97912.47;4173116;28;20628;-83
2023/11/20 06:36:30;;;;;;;7.20;2.57;;;;;;;12.43;90.42;97919.09;4150661;28;20717;-84
2023/11/20 06:38:35;;;;;;;11.10;2.50;;;;;;;12.47;89.34;97923.97;4155748;28;20622;-83
2023/11/20 06:40:40;;;;;;;8.60;2.07;;;;;;;12.49;90.81;97921.25;4170223;28;20663;-83
2023/11/20 06:42:44;;;;;;;8.37;2.20;;;;;;;12.51;90.85;97914.94;4180383;28;20632;-83
2023/11/20 06:44:48;;;;;;;6.70;2.20;;;;;;;12.54;89.82;97921.69;4166884;28;20661;-83
2023/11/20 06:46:52;;;;;;;6.93;2.23;;;;;;;12.54;90.00;97922.56;4164112;28;21040;-84
2023/11/20 06:48:55;;;;;;;6.97;2.07;;;;;;;12.56;91.07;97920.63;4157663;28;20702;-83
2023/11/20 06:50:58;;;;;;;8.20;3.07;;;;;;;12.59;90.58;97922.19;4184737;28;20632;-83
2023/11/20 06:53:04;;;;;;;5.67;2.27;;;;;;;12.60;90.57;97923.84;4167465;28;21063;-85
2023/11/20 06:55:09;;;;;;;5.90;2.17;;;;;;;12.61;91.36;97921.09;4154910;28;21234;-85
2023/11/20 06:57:12;;;;;;;8.17;2.57;;;;;;;12.61;90.64;97922.91;4182804;28;21168;-85
2023/11/20 06:59:16;;;;;;;8.73;2.10;;;;;;;12.61;90.71;97921.09;4171768;28;20624;-85
2023/11/20 07:01:20;;;;;;;8.40;1.90;;;;;;;12.60;89.34;97923.84;4182710;28;21090;-86
2023/11/20 07:03:23;;;;;;;7.10;2.20;;;;;;;12.61;90.10;97921.09;4181957;28;21238;-84
2023/11/20 07:05:27;;;;;;;5.20;2.00;;;;;;;12.63;89.40;97928.81;4160707;28;20633;-85
2023/11/20 07:07:29;;;;;;;7.53;2.13;;;;;;;12.66;91.04;97923.34;4179584;28;20659;-84
2023/11/20 07:09:32;;;;;;;30.93;13.97;;;;;;;12.66;90.16;97929.44;4152366;28;20653;-86
2023/11/20 07:11:36;;;;;;;8.93;3.53;;;;;;;12.67;90.99;97925.03;4172478;28;20719;-84
2023/11/20 07:13:40;;;;;;;9.73;2.63;;;;;;;12.76;89.93;97925.97;4167743;28;20641;-85
2023/11/20 07:15:43;;;;;;;9.00;3.77;;;;;;;12.73;90.51;97926.22;4167309;28;21257;-85
2023/11/20 07:17:47;;;;;;;14.67;2.50;;;;;;;12.69;91.05;97934.44;4172891;28;20625;-88
2023/11/20 07:19:50;;;;;;;10.00;3.50;;;;;;;12.67;90.56;97919.78;4165415;28;20660;-85
2023/11/20 07:21:53;;;;;;;11.13;2.60;;;;;;;12.66;91.03;97918.97;4185232;28;20631;-86
2023/11/20 07:23:57;;;;;;;5.50;2.23;;;;;;;12.67;90.64;97914.56;4172376;28;20687;-87
2023/11/20 07:26:04;;;;;;;8.57;2.47;;;;;;;12.65;90.69;97917.28;4154288;28;20633;-86
2023/11/20 07:28:08;;;;;;;6.13;2.40;;;;;;;12.66;89.81;97918.97;4163060;28;20625;-84
2023/11/20 07:30:12;;;;;;;9.53;2.50;;;;;;;12.78;90.39;97931.09;4154801;28;21250;-86
2023/11/20 07:32:16;;;;;;;11.90;2.40;;;;;;;12.80;90.39;97931.78;4168921;28;21246;-86
2023/11/20 07:34:21;;;;;;;9.20;2.27;;;;;;;12.73;90.21;97925.38;4171281;28;21290;-86
2023/11/20 07:36:25;;;;;;;10.00;2.40;;;;;;;12.73;89.40;97930.59;4187654;28;20617;-85
2023/11/20 07:38:28;;;;;;;5.57;2.77;;;;;;;12.70;90.02;97917.75;4165456;28;20664;-85
2023/11/20 07:40:32;;;;;;;7.80;2.50;;;;;;;12.68;89.71;97925.72;4191182;28;21201;-86
2023/11/20 07:42:35;;;;;;;8.43;2.83;;;;;;;12.64;87.50;97917.41;4180793;28;20663;-85
2023/11/20 07:44:40;;;;;;;7.40;2.30;;;;;;;12.64;88.44;97917.41;4166396;28;20625;-85
2023/11/20 07:46:43;;;;;;;8.03;1.97;;;;;;;12.64;87.56;97920.84;4180770;28;20631;-86
2023/11/20 07:48:46;;;;;;;5.07;2.00;;;;;;;12.73;87.86;97915.75;4174616;28;20719;-85
2023/11/20 07:50:49;;;;;;;7.60;2.30;;;;;;;12.81;86.63;97915.13;4153720;28;20627;-85
2023/11/20 07:52:52;;;;;;;11.07;3.17;;;;;;;12.78;85.81;97913.59;4179512;28;20621;-84
2023/11/20 07:54:56;;;;;;;9.07;3.10;;;;;;;12.79;86.08;97920.50;4164336;28;20627;-84
2023/11/20 07:56:59;;;;;;;5.33;2.07;;;;;;;12.74;87.28;97909.53;4169598;28;20625;-86
2023/11/20 07:59:03;;;;;;;11.10;2.03;;;;;;;12.72;86.89;97908.03;4178676;28;20609;-86
2023/11/20 08:01:08;;;;;;;8.73;2.60;;;;;;;12.71;87.00;97907.16;4163102;28;20647;-85
2023/11/20 08:03:12;;;;;;;7.57;1.50;;;;;;;12.75;86.55;97913.00;4155983;28;20629;-86
2023/11/20 08:05:18;;;;;;;7.57;2.03;;;;;;;12.76;87.54;97912.88;4152639;28;21522;-83
2023/11/20 08:07:22;;;;;;;10.50;1.70;;;;;;;12.76;86.95;97906.81;4155116;28;20616;-85
2023/11/20 08:09:25;;;;;;;6.53;1.63;;;;;;;12.76;87.65;97912.03;4159775;28;20743;-88
2023/11/20 08:11:28;;;;;;;4.03;1.50;;;;;;;12.77;86.11;97906.69;4181437;28;20633;-86
2023/11/20 08:13:30;;;;;;;8.53;1.73;;;;;;;12.79;86.02;97910.03;4166798;28;21802;-89
2023/11/20 08:15:34;;;;;;;6.90;1.93;;;;;;;12.82;86.13;97920.28;4180964;28;20991;-86
2023/11/20 08:17:38;;;;;;;4.63;1.60;;;;;;;12.86;87.03;97911.22;4178742;28;20672;-87
2023/11/20 08:19:41;;;;;;;8.73;1.97;;;;;;;12.87;87.04;97909.41;4181691;28;20620;-87
2023/11/20 08:21:45;;;;;;;8.00;2.20;;;;;;;12.91;86.65;97903.00;4171465;28;20656;-87
2023/11/20 08:23:49;;;;;;;9.13;2.10;;;;;;;12.95;86.89;97907.03;4179363;28;21038;-87
2023/11/20 08:25:52;;;;;;;8.20;1.40;;;;;;;12.99;87.16;97897.97;4170912;28;20644;-87
2023/11/20 08:27:55;;;;;;;6.40;2.00;;;;;;;13.01;86.42;97896.91;4153601;28;21296;-86
2023/11/20 08:29:58;;;;;;;7.83;1.70;;;;;;;13.06;86.05;97893.91;4165406;28;20784;-87
2023/11/20 08:32:01;;;;;;;6.23;1.87;;;;;;;13.10;86.50;97892.72;4179698;28;20655;-86
2023/11/20 08:34:07;;;;;;;5.83;1.57;;;;;;;13.10;85.79;97893.53;4182466;28;20724;-87
2023/11/20 08:36:10;;;;;;;9.10;2.10;;;;;;;13.14;86.17;97902.81;4182956;28;20629;-87
2023/11/20 08:38:15;;;;;;;9.20;2.10;;;;;;;13.16;85.41;97890.41;4164219;28;21134;-87
2023/11/20 08:40:18;;;;;;;8.90;1.97;;;;;;;13.20;86.23;97891.84;4170696;28;20653;-87
2023/11/20 08:42:25;;;;;;;7.00;2.03;;;;;;;13.22;85.59;97890.72;4175285;28;21171;-87
2023/11/20 08:44:29;;;;;;;8.80;3.50;;;;;;;13.25;86.25;97893.09;4162525;28;20682;-86
2023/11/20 08:46:32;;;;;;;10.73;3.07;;;;;;;13.27;85.92;97895.59;4183810;28;20617;-87
2023/11/20 08:48:35;;;;;;;5.20;1.67;;;;;;;13.28;85.17;97897.28;4158870;28;20744;-87
2023/11/20 08:50:40;;;;;;;9.70;2.13;;;;;;;13.27;84.85;97898.22;4189667;28;20649;-86
2023/11/20 08:52:43;;;;;;;10.37;2.50;;;;;;;13.29;85.49;97894.53;4160088;28;20666;-87
2023/11/20 08:54:46;;;;;;;6.17;2.07;;;;;;;13.34;84.80;97892.34;4159823;28;20636;-88
2023/11/20 08:56:51;;;;;;;8.93;2.40;;;;;;;13.35;84.65;97893.16;4160723;28;20713;-88
2023/11/20 08:58:54;;;;;;;7.60;2.27;;;;;;;13.33;85.02;97895.91;4158286;28;21038;-88
2023/11/20 09:00:59;;;;;;;9.17;2.40;;;;;;;13.33;84.41;97884.63;4160487;28;20638;-88
2023/11/20 09:03:02;;;;;;;12.00;2.10;;;;;;;13.30;84.41;97885.69;4190257;28;20626;-87
2023/11/20 09:05:07;;;;;;;5.63;1.63;;;;;;;13.30;84.48;97890.09;4187558;28;21086;-87
2023/11/20 09:07:13;;;;;;;6.73;1.90;;;;;;;13.34;83.85;97886.28;4173291;28;20954;-88
2023/11/20 09:09:16;;;;;;;10.60;2.97;;;;;;;13.40;84.36;97891.03;4158957;28;21012;-87
2023/11/20 09:11:19;;;;;;;5.57;1.57;;;;;;;13.45;84.88;97894.09;4162668;28;20629;-87
2023/11/20 09:13:23;;;;;;;6.70;1.90;;;;;;;13.47;83.56;97884.28;4172556;28;20633;-87
2023/11/20 09:15:26;;;;;;;7.97;2.10;;;;;;;13.48;83.19;97891.22;4175580;28;20627;-87
2023/11/20 09:17:30;;;;;;;8.83;2.37;;;;;;;13.49;83.42;97890.25;4183897;28;20617;-87
2023/11/20 09:19:34;;;;;;;4.77;1.60;;;;;;;13.50;83.60;97894.53;4172291;28;20732;-87
2023/11/20 09:21:37;;;;;;;7.00;1.70;;;;;;;13.38;82.96;97896.38;4159915;28;20615;-88
2023/11/20 09:23:42;;;;;;;6.80;1.60;;;;;;;13.35;83.42;97885.31;4184159;28;20640;-87
2023/11/20 09:25:45;;;;;;;7.80;1.83;;;;;;;13.35;82.93;97883.53;4167210;28;21209;-87
2023/11/20 09:27:48;;;;;;;5.90;1.60;;;;;;;13.40;83.52;97885.78;4157816;28;20649;-87
2023/11/20 09:29:51;;;;;;;7.63;2.00;;;;;;;13.46;84.54;97893.13;4182697;28;20653;-87
2023/11/20 09:31:55;;;;;;;5.03;1.73;;;;;;;13.50;84.07;97897.16;4188274;28;20641;-87
2023/11/20 09:33:59;;;;;;;5.70;1.90;;;;;;;13.56;83.95;97901.88;4182261;28;20977;-86
2023/11/20 09:36:03;;;;;;;9.67;2.67;;;;;;;13.66;84.15;97900.97;4182014;28;21101;-86
2023/11/20 09:38:06;;;;;;;10.50;2.30;;;;;;;13.73;83.12;97895.09;4167928;28;20631;-87
2023/11/20 09:40:13;;;;;;;5.50;1.80;;;;;;;13.66;82.90;97891.31;4172493;28;21000;-86
2023/11/20 09:42:17;;;;;;;7.03;1.83;;;;;;;13.70;82.71;97887.50;4163765;28;20679;-88